sensor_id;sensor_type;location;lat;lon;timestamp;pressure;altitude;pressure_sealevel;temperature
38249;BMP280;24045;51.138;17.126;2023-07-13T00:04:20;99860.92;;;20.02
38249;BMP280;24045;51.138;17.126;2023-07-13T00:19:24;99888.20;;;19.94
38249;BMP280;24045;51.138;17.126;2023-07-13T00:34:27;99870.22;;;19.86
38249;BMP280;24045;51.138;17.126;2023-07-13T00:49:31;99879.60;;;19.80
38249;BMP280;24045;51.138;17.126;2023-07-13T01:04:34;99877.16;;;19.67
38249;BMP280;24045;51.138;17.126;2023-07-13T01:19:41;99910.34;;;19.73
38249;BMP280;24045;51.138;17.126;2023-07-13T01:34:45;99898.30;;;19.62
38249;BMP280;24045;51.138;17.126;2023-07-13T01:49:49;99883.98;;;19.50
38249;BMP280;24045;51.138;17.126;2023-07-13T02:04:54;99877.80;;;19.26
38249;BMP280;24045;51.138;17.126;2023-07-13T02:19:57;99869.04;;;18.96
38249;BMP280;24045;51.138;17.126;2023-07-13T02:35:01;99847.75;;;18.71
38249;BMP280;24045;51.138;17.126;2023-07-13T02:50:04;99839.46;;;18.50
38249;BMP280;24045;51.138;17.126;2023-07-13T03:05:07;99829.77;;;18.40
38249;BMP280;24045;51.138;17.126;2023-07-13T03:20:10;99860.86;;;18.22
38249;BMP280;24045;51.138;17.126;2023-07-13T03:35:40;99871.09;;;18.34
38249;BMP280;24045;51.138;17.126;2023-07-13T03:50:43;99846.91;;;19.69
38249;BMP280;24045;51.138;17.126;2023-07-13T04:05:46;99863.48;;;20.16
38249;BMP280;24045;51.138;17.126;2023-07-13T04:20:50;99856.88;;;20.10
38249;BMP280;24045;51.138;17.126;2023-07-13T04:35:54;99893.53;;;20.22
38249;BMP280;24045;51.138;17.126;2023-07-13T04:50:59;100006.67;;;19.90
38249;BMP280;24045;51.138;17.126;2023-07-13T05:06:05;100153.19;;;19.00
38249;BMP280;24045;51.138;17.126;2023-07-13T05:21:10;100172.64;;;17.12
38249;BMP280;24045;51.138;17.126;2023-07-13T05:36:14;100140.27;;;16.62
38249;BMP280;24045;51.138;17.126;2023-07-13T05:51:17;100109.20;;;16.55
38249;BMP280;24045;51.138;17.126;2023-07-13T06:06:20;100011.55;;;16.36
38249;BMP280;24045;51.138;17.126;2023-07-13T06:21:23;100010.64;;;16.51
38249;BMP280;24045;51.138;17.126;2023-07-13T06:36:26;100028.64;;;16.82
38249;BMP280;24045;51.138;17.126;2023-07-13T06:51:29;100055.61;;;19.23
38249;BMP280;24045;51.138;17.126;2023-07-13T07:06:32;100089.69;;;19.56
38249;BMP280;24045;51.138;17.126;2023-07-13T07:21:36;100153.77;;;19.44
38249;BMP280;24045;51.138;17.126;2023-07-13T07:36:38;100210.98;;;18.74
38249;BMP280;24045;51.138;17.126;2023-07-13T07:51:44;100174.41;;;18.33
38249;BMP280;24045;51.138;17.126;2023-07-13T08:06:47;100033.14;;;17.95
38249;BMP280;24045;51.138;17.126;2023-07-13T08:21:50;100041.08;;;17.55
38249;BMP280;24045;51.138;17.126;2023-07-13T08:36:53;100123.80;;;19.24
38249;BMP280;24045;51.138;17.126;2023-07-13T08:52:02;100153.45;;;20.21
38249;BMP280;24045;51.138;17.126;2023-07-13T09:07:21;100186.66;;;20.48
38249;BMP280;24045;51.138;17.126;2023-07-13T09:22:32;100197.91;;;20.94
38249;BMP280;24045;51.138;17.126;2023-07-13T09:53:18;100196.90;;;24.61
38249;BMP280;24045;51.138;17.126;2023-07-13T10:08:24;100177.17;;;25.06
38249;BMP280;24045;51.138;17.126;2023-07-13T10:23:31;100169.00;;;26.62
38249;BMP280;24045;51.138;17.126;2023-07-13T10:38:36;100180.92;;;28.75
38249;BMP280;24045;51.138;17.126;2023-07-13T10:53:39;100189.86;;;28.43
38249;BMP280;24045;51.138;17.126;2023-07-13T11:24:14;100180.25;;;28.15
38249;BMP280;24045;51.138;17.126;2023-07-13T11:39:30;100185.01;;;27.92
38249;BMP280;24045;51.138;17.126;2023-07-13T11:54:50;100180.58;;;27.36
38249;BMP280;24045;51.138;17.126;2023-07-13T12:10:24;100184.27;;;27.15
38249;BMP280;24045;51.138;17.126;2023-07-13T12:25:26;100193.52;;;27.26
38249;BMP280;24045;51.138;17.126;2023-07-13T12:40:33;100181.83;;;27.52
38249;BMP280;24045;51.138;17.126;2023-07-13T12:55:55;100178.20;;;27.65
38249;BMP280;24045;51.138;17.126;2023-07-13T13:11:02;100173.69;;;27.96
38249;BMP280;24045;51.138;17.126;2023-07-13T13:26:11;100161.16;;;27.74
38249;BMP280;24045;51.138;17.126;2023-07-13T13:41:15;100154.49;;;27.46
38249;BMP280;24045;51.138;17.126;2023-07-13T13:56:18;100150.66;;;27.25
38249;BMP280;24045;51.138;17.126;2023-07-13T14:11:22;100147.61;;;27.29
38249;BMP280;24045;51.138;17.126;2023-07-13T14:26:26;100125.50;;;26.83
38249;BMP280;24045;51.138;17.126;2023-07-13T14:41:29;100130.41;;;26.76
38249;BMP280;24045;51.138;17.126;2023-07-13T14:56:32;100119.30;;;26.65
38249;BMP280;24045;51.138;17.126;2023-07-13T15:11:35;100116.66;;;26.81
38249;BMP280;24045;51.138;17.126;2023-07-13T15:26:38;100124.27;;;27.05
38249;BMP280;24045;51.138;17.126;2023-07-13T15:41:42;100111.70;;;26.86
38249;BMP280;24045;51.138;17.126;2023-07-13T15:56:54;100102.25;;;26.35
38249;BMP280;24045;51.138;17.126;2023-07-13T16:11:58;100116.11;;;25.75
38249;BMP280;24045;51.138;17.126;2023-07-13T16:27:02;100138.09;;;25.70
38249;BMP280;24045;51.138;17.126;2023-07-13T16:42:08;100152.67;;;25.33
38249;BMP280;24045;51.138;17.126;2023-07-13T16:57:20;100159.80;;;24.72
38249;BMP280;24045;51.138;17.126;2023-07-13T17:12:23;100166.36;;;24.57
38249;BMP280;24045;51.138;17.126;2023-07-13T17:27:33;100176.83;;;24.34
38249;BMP280;24045;51.138;17.126;2023-07-13T17:42:36;100162.03;;;23.98
38249;BMP280;24045;51.138;17.126;2023-07-13T17:57:44;100168.71;;;23.76
38249;BMP280;24045;51.138;17.126;2023-07-13T18:12:51;100173.52;;;23.56
38249;BMP280;24045;51.138;17.126;2023-07-13T18:27:55;100186.71;;;23.16
38249;BMP280;24045;51.138;17.126;2023-07-13T18:42:57;100206.88;;;22.63
38249;BMP280;24045;51.138;17.126;2023-07-13T18:58:00;100219.05;;;22.13
38249;BMP280;24045;51.138;17.126;2023-07-13T19:13:10;100242.50;;;21.71
38249;BMP280;24045;51.138;17.126;2023-07-13T19:28:38;100285.67;;;20.84
38249;BMP280;24045;51.138;17.126;2023-07-13T19:43:43;100285.95;;;19.75
38249;BMP280;24045;51.138;17.126;2023-07-13T19:58:46;100304.95;;;19.05
38249;BMP280;24045;51.138;17.126;2023-07-13T20:13:50;100320.73;;;18.90
38249;BMP280;24045;51.138;17.126;2023-07-13T20:28:53;100338.48;;;18.76
38249;BMP280;24045;51.138;17.126;2023-07-13T20:43:56;100348.27;;;18.36
38249;BMP280;24045;51.138;17.126;2023-07-13T20:58:59;100342.72;;;18.27
38249;BMP280;24045;51.138;17.126;2023-07-13T21:14:02;100337.23;;;18.05
38249;BMP280;24045;51.138;17.126;2023-07-13T21:29:05;100341.46;;;17.71
38249;BMP280;24045;51.138;17.126;2023-07-13T21:44:28;100356.27;;;17.36
38249;BMP280;24045;51.138;17.126;2023-07-13T21:59:32;100365.41;;;17.04
38249;BMP280;24045;51.138;17.126;2023-07-13T22:14:35;100363.95;;;16.61
38249;BMP280;24045;51.138;17.126;2023-07-13T22:29:38;100371.58;;;16.25
38249;BMP280;24045;51.138;17.126;2023-07-13T22:44:41;100375.17;;;15.95
38249;BMP280;24045;51.138;17.126;2023-07-13T22:59:44;100375.39;;;15.64
38249;BMP280;24045;51.138;17.126;2023-07-13T23:14:47;100387.95;;;15.51
38249;BMP280;24045;51.138;17.126;2023-07-13T23:29:49;100394.52;;;15.32
38249;BMP280;24045;51.138;17.126;2023-07-13T23:44:52;100387.88;;;15.08
38249;BMP280;24045;51.138;17.126;2023-07-13T23:59:55;100397.30;;;14.99
